CheckWX is a tool to help pilots better visualize weather data.  It is not intended as a substitute for an official pre-flight weather briefing.

04:43:06 UTC

KLSE TAF
La Crosse Regional Airport
La Crosse, Wisconsin, USA
KLSE 262340Z 2700/2724 VRB04KT P6SM FEW200 FM271200 VRB04KT P6SM BKN150 FM271800 23006KT P6SM -SHRA VCTS SCT050CB BKN100 FM272100 19005KT P6SM VCSH BKN040 FM272300 19010KT P6SM VCTS BKN040CB

Jun-27@
00:00 UTC

Jun-27 @ 00:00 UTC

Jun-27@
12:00 UTC

Jun-27 @ 12:00 UTC

KLSE 262340Z 2700/2724 VRB04KT P6SM FEW200
Wind
  • Variable at 4 KTS
Cloud Levels
  • Few at 20,000' AGL

Jun-27@
12:00 UTC

Jun-27 @ 12:00 UTC

Jun-27@
18:00 UTC

Jun-27 @ 18:00 UTC

FM271200 VRB04KT P6SM BKN150

From

From Standard forecast or significant change

Wind
  • Variable at 4 KTS
Cloud Levels
  • Broken at 15,000' AGL

Jun-27@
18:00 UTC

Jun-27 @ 18:00 UTC

Jun-27@
21:00 UTC

Jun-27 @ 21:00 UTC

FM271800 23006KT P6SM -SHRA VCTS SCT050CB BKN100

From

From Standard forecast or significant change

Wind
  • 230° at 6 KTS
Conditions
Light Rain, Area Thunderstorm
Cloud Levels
  • Scattered at 5,000' AGL
  • Broken at 10,000' AGL

Jun-27@
21:00 UTC

Jun-27 @ 21:00 UTC

Jun-27@
23:00 UTC

Jun-27 @ 23:00 UTC

FM272100 19005KT P6SM VCSH BKN040

From

From Standard forecast or significant change

Wind
  • 190° at 5 KTS
Cloud Levels
  • Broken at 4,000' AGL

Jun-27@
23:00 UTC

Jun-27 @ 23:00 UTC

Jun-28@
00:00 UTC

Jun-28 @ 00:00 UTC

FM272300 19010KT P6SM VCTS BKN040CB

From

From Standard forecast or significant change

Wind
  • 190° at 10 KTS
Conditions
Area Thunderstorm
Cloud Levels
  • Broken at 4,000' AGL